createdAt,value
2019-01-13T00:00:52.348Z,6.70
2019-01-13T00:01:52.338Z,5.50
2019-01-13T00:02:52.353Z,7.30
2019-01-13T00:03:52.334Z,6.80
2019-01-13T00:04:52.306Z,7.20
2019-01-13T00:05:52.294Z,7.70
2019-01-13T00:06:52.294Z,4.80
2019-01-13T00:07:52.279Z,9.00
2019-01-13T00:08:52.279Z,9.30
2019-01-13T00:09:52.258Z,8.60
2019-01-13T00:10:52.244Z,7.00
2019-01-13T00:11:52.244Z,6.90
2019-01-13T00:12:52.229Z,6.70
2019-01-13T00:13:52.217Z,7.00
2019-01-13T00:14:52.202Z,7.10
2019-01-13T00:15:52.202Z,6.30
2019-01-13T00:16:52.187Z,7.40
2019-01-13T00:17:52.165Z,7.30
2019-01-13T00:18:52.185Z,6.30
2019-01-13T00:19:52.178Z,7.00
2019-01-13T00:20:52.158Z,6.50
2019-01-13T00:21:52.157Z,7.70
2019-01-13T00:22:52.118Z,7.30
2019-01-13T00:23:52.106Z,10.00
2019-01-13T00:24:52.090Z,7.80
2019-01-13T00:25:52.099Z,6.40
2019-01-13T00:26:52.089Z,6.10
2019-01-13T00:27:52.074Z,5.50
2019-01-13T00:28:52.054Z,9.00
2019-01-13T00:29:52.050Z,6.20
2019-01-13T00:30:52.037Z,5.20
2019-01-13T00:31:52.029Z,6.80
2019-01-13T00:32:52.044Z,6.80
2019-01-13T00:33:51.996Z,8.40
2019-01-13T00:34:51.987Z,5.50
2019-01-13T00:35:51.979Z,8.30
2019-01-13T00:36:51.974Z,8.80
2019-01-13T00:37:51.973Z,6.40
2019-01-13T00:38:51.954Z,7.40
2019-01-13T00:39:51.942Z,5.70
2019-01-13T00:40:51.927Z,6.70
2019-01-13T00:41:51.921Z,5.40
2019-01-13T00:42:51.916Z,7.10
2019-01-13T00:43:51.909Z,6.60
2019-01-13T00:44:51.887Z,6.90
2019-01-13T00:45:51.875Z,5.60
2019-01-13T00:46:51.857Z,7.10
2019-01-13T00:47:51.859Z,7.80
2019-01-13T00:48:51.855Z,8.40
2019-01-13T00:49:51.851Z,7.70
2019-01-13T00:50:51.836Z,7.30
2019-01-13T00:51:51.823Z,7.80
2019-01-13T00:52:51.812Z,7.30
2019-01-13T00:53:51.792Z,5.40
2019-01-13T00:54:51.782Z,5.60
2019-01-13T00:55:51.786Z,6.60
2019-01-13T00:56:51.755Z,3.90
2019-01-13T00:57:51.745Z,6.60
2019-01-13T00:58:51.754Z,6.00
2019-01-13T00:59:51.766Z,6.30
2019-01-13T01:00:51.729Z,6.70
2019-01-13T01:01:51.741Z,3.90
2019-01-13T01:02:51.692Z,5.20
2019-01-13T01:03:51.710Z,6.60
2019-01-13T01:04:51.697Z,5.20
2019-01-13T01:05:51.668Z,6.10
2019-01-13T01:06:51.654Z,5.60
2019-01-13T01:07:51.653Z,5.70
2019-01-13T01:08:51.638Z,6.80
2019-01-13T01:09:51.625Z,5.00
2019-01-13T01:10:51.613Z,5.30
2019-01-13T01:11:51.605Z,6.30
2019-01-13T01:12:51.606Z,5.80
2019-01-13T01:13:51.586Z,6.30
2019-01-13T01:14:51.573Z,5.70
2019-01-13T01:15:51.565Z,6.70
2019-01-13T01:16:51.541Z,4.20
2019-01-13T01:17:51.548Z,4.60
2019-01-13T01:18:51.539Z,5.60
2019-01-13T01:19:51.526Z,4.30
2019-01-13T01:20:51.515Z,4.50
2019-01-13T01:21:51.499Z,3.50
2019-01-13T01:22:51.482Z,4.40
2019-01-13T01:23:51.484Z,3.90
2019-01-13T01:24:51.486Z,4.00
2019-01-13T01:25:51.458Z,5.40
2019-01-13T01:26:51.455Z,4.30
2019-01-13T01:27:51.461Z,3.10
2019-01-13T01:28:51.421Z,4.80
2019-01-13T01:29:51.419Z,3.70
2019-01-13T01:30:51.427Z,4.00
2019-01-13T01:31:51.394Z,4.40
2019-01-13T01:32:51.377Z,4.90
2019-01-13T01:33:51.375Z,3.60
2019-01-13T01:34:51.363Z,4.20
2019-01-13T01:35:51.354Z,3.90
2019-01-13T01:36:51.345Z,3.70
2019-01-13T01:37:51.345Z,4.60
2019-01-13T01:38:51.332Z,3.50
2019-01-13T01:39:51.310Z,4.20
2019-01-13T01:40:51.312Z,3.10
2019-01-13T01:41:51.285Z,3.70
2019-01-13T01:42:51.280Z,3.00
2019-01-13T01:43:51.279Z,3.80
2019-01-13T01:44:51.262Z,4.20
2019-01-13T01:45:51.255Z,3.80
2019-01-13T01:46:51.245Z,3.50
2019-01-13T01:47:51.227Z,4.30
2019-01-13T01:48:51.217Z,3.20
2019-01-13T01:49:51.215Z,2.90
2019-01-13T01:50:51.202Z,3.90
2019-01-13T01:51:51.208Z,2.80
2019-01-13T01:52:51.176Z,3.20
2019-01-13T01:53:51.182Z,3.30
2019-01-13T01:54:51.158Z,5.00
2019-01-13T01:55:51.147Z,4.40
2019-01-13T01:56:51.128Z,3.20
2019-01-13T01:57:51.127Z,4.40
2019-01-13T01:58:51.113Z,2.50
2019-01-13T01:59:51.106Z,4.60
2019-01-13T02:00:51.101Z,1.40
2019-01-13T02:01:51.085Z,3.50
2019-01-13T02:02:51.071Z,4.90
2019-01-13T02:03:51.074Z,2.40
2019-01-13T02:04:51.053Z,2.40
2019-01-13T02:05:51.046Z,3.40
2019-01-13T02:06:51.028Z,5.10
2019-01-13T02:07:51.016Z,3.90
2019-01-13T02:08:51.000Z,3.10
2019-01-13T02:09:51.000Z,4.10
2019-01-13T02:10:50.994Z,3.90
2019-01-13T02:11:50.979Z,2.30
2019-01-13T02:12:50.963Z,3.90
2019-01-13T02:13:50.948Z,3.60
2019-01-13T02:14:50.948Z,3.20
2019-01-13T02:15:50.943Z,3.30
2019-01-13T02:16:50.928Z,4.40
2019-01-13T02:17:50.908Z,3.40
2019-01-13T02:18:50.895Z,4.00
2019-01-13T02:19:50.901Z,4.70
2019-01-13T02:20:50.882Z,2.50
2019-01-13T02:21:50.873Z,4.60
2019-01-13T02:22:50.864Z,4.60
2019-01-13T02:23:50.854Z,4.00
2019-01-13T02:24:50.843Z,3.80
2019-01-13T02:25:50.826Z,3.00
2019-01-13T02:26:50.821Z,2.60
2019-01-13T02:27:50.820Z,2.50
2019-01-13T02:28:50.791Z,4.30
2019-01-13T02:29:50.795Z,5.50
2019-01-13T02:30:50.769Z,4.00
2019-01-13T02:31:50.757Z,6.50
2019-01-13T02:32:50.765Z,4.20
2019-01-13T02:33:50.740Z,4.70
2019-01-13T02:34:50.732Z,4.30
2019-01-13T02:35:50.726Z,4.70
2019-01-13T02:36:50.726Z,4.10
2019-01-13T02:37:50.695Z,4.80
2019-01-13T02:38:50.700Z,3.70
2019-01-13T02:39:50.693Z,3.50
2019-01-13T02:40:50.666Z,4.10
2019-01-13T02:41:50.654Z,4.40
2019-01-13T02:42:50.649Z,3.10
2019-01-13T02:43:50.645Z,5.60
2019-01-13T02:44:50.640Z,5.60
2019-01-13T02:45:50.657Z,5.40
2019-01-13T02:46:50.604Z,4.60
2019-01-13T02:47:50.676Z,2.80
2019-01-13T02:48:50.585Z,3.80
2019-01-13T02:49:50.578Z,4.70
2019-01-13T02:50:50.583Z,3.80
2019-01-13T02:51:50.561Z,4.50
2019-01-13T02:52:50.544Z,5.10
2019-01-13T02:53:50.532Z,5.10
2019-01-13T02:54:50.521Z,4.70
2019-01-13T02:55:50.518Z,5.40
2019-01-13T02:56:50.498Z,4.50
2019-01-13T02:57:50.548Z,4.90
2019-01-13T02:58:50.479Z,4.60
2019-01-13T02:59:50.474Z,4.80
2019-01-13T03:00:57.092Z,4.80
2019-01-13T03:01:51.446Z,4.10
2019-01-13T03:02:50.436Z,5.50
2019-01-13T03:03:50.429Z,5.80
2019-01-13T03:04:50.419Z,6.10
2019-01-13T03:05:50.408Z,5.50
2019-01-13T03:06:50.395Z,6.80
2019-01-13T03:07:50.406Z,5.30
2019-01-13T03:08:50.376Z,5.60
2019-01-13T03:09:50.364Z,6.30
2019-01-13T03:10:50.352Z,6.70
2019-01-13T03:11:50.345Z,5.50
2019-01-13T03:12:50.334Z,4.80
2019-01-13T03:13:50.323Z,5.80
2019-01-13T03:14:50.311Z,5.80
2019-01-13T03:15:50.302Z,6.00
2019-01-13T03:16:50.292Z,5.00
2019-01-13T03:17:50.291Z,8.60
2019-01-13T03:18:50.286Z,5.70
2019-01-13T03:19:50.257Z,8.30
2019-01-13T03:20:50.248Z,3.60
2019-01-13T03:21:50.238Z,3.70
2019-01-13T03:22:50.236Z,7.00
2019-01-13T03:23:50.219Z,5.40
2019-01-13T03:24:50.220Z,5.00
2019-01-13T03:25:50.197Z,6.00
2019-01-13T03:26:50.188Z,5.20
2019-01-13T03:27:50.182Z,5.10
2019-01-13T03:28:50.163Z,4.60
2019-01-13T03:29:50.162Z,5.00
2019-01-13T03:30:50.165Z,4.60
2019-01-13T03:31:50.136Z,6.50
2019-01-13T03:32:50.124Z,4.20
2019-01-13T03:33:50.136Z,6.70
2019-01-13T03:34:50.103Z,4.20
2019-01-13T03:35:50.098Z,4.10
2019-01-13T03:36:50.100Z,5.90
2019-01-13T03:37:50.074Z,4.80
2019-01-13T03:38:50.066Z,5.20
2019-01-13T03:39:50.054Z,6.30
2019-01-13T03:40:50.048Z,4.30
2019-01-13T03:41:50.042Z,4.20
2019-01-13T03:42:50.017Z,5.10
2019-01-13T03:43:50.006Z,5.30
2019-01-13T03:44:49.994Z,6.00
2019-01-13T03:45:50.005Z,5.20
2019-01-13T03:46:49.987Z,4.10
2019-01-13T03:47:49.987Z,4.30
2019-01-13T03:48:49.959Z,6.10
2019-01-13T03:49:49.946Z,5.50
2019-01-13T03:50:49.930Z,3.50
2019-01-13T03:51:49.924Z,5.00
2019-01-13T03:52:53.331Z,4.40
2019-01-13T03:53:49.907Z,6.50
2019-01-13T03:54:49.896Z,4.70
2019-01-13T03:55:49.881Z,4.50
2019-01-13T03:56:49.867Z,4.00
2019-01-13T03:57:49.859Z,5.10
2019-01-13T03:58:49.866Z,5.70
2019-01-13T03:59:49.858Z,5.90
2019-01-13T04:00:49.823Z,6.30
2019-01-13T04:01:49.815Z,5.60
2019-01-13T04:02:49.865Z,5.20
2019-01-13T04:03:49.937Z,4.40
2019-01-13T04:04:49.796Z,5.90
2019-01-13T04:05:49.772Z,5.60
2019-01-13T04:06:49.759Z,4.70
2019-01-13T04:07:49.756Z,3.70
2019-01-13T04:08:49.742Z,5.30
2019-01-13T04:09:49.730Z,3.20
2019-01-13T04:10:49.729Z,4.70
2019-01-13T04:11:49.708Z,4.90
2019-01-13T04:12:49.696Z,3.20
2019-01-13T04:13:49.694Z,4.80
2019-01-13T04:14:49.675Z,5.30
2019-01-13T04:15:49.666Z,4.50
2019-01-13T04:16:49.672Z,5.40
2019-01-13T04:17:49.642Z,4.50
2019-01-13T04:18:49.638Z,4.10
2019-01-13T04:19:49.635Z,5.70
2019-01-13T04:20:49.608Z,5.20
2019-01-13T04:21:49.608Z,5.90
2019-01-13T04:22:49.584Z,5.20
2019-01-13T04:23:49.574Z,3.60
2019-01-13T04:24:49.566Z,5.10
2019-01-13T04:25:49.572Z,4.90
2019-01-13T04:26:49.544Z,5.30
2019-01-13T04:27:49.555Z,4.10
2019-01-13T04:28:49.520Z,6.00
2019-01-13T04:29:49.517Z,6.30
2019-01-13T04:30:49.507Z,6.10
2019-01-13T04:31:49.494Z,5.80
2019-01-13T04:32:49.486Z,6.00
2019-01-13T04:33:49.468Z,5.30
2019-01-13T04:34:49.459Z,5.40
2019-01-13T04:35:49.454Z,5.00
2019-01-13T04:36:49.444Z,5.10
2019-01-13T04:37:49.442Z,7.70
2019-01-13T04:38:49.420Z,5.20
2019-01-13T04:39:49.424Z,4.50
2019-01-13T04:40:49.399Z,7.20
2019-01-13T04:41:49.389Z,4.30
2019-01-13T04:42:49.372Z,4.90
2019-01-13T04:43:49.364Z,5.20
2019-01-13T04:44:49.384Z,7.80
2019-01-13T04:45:49.342Z,3.50
2019-01-13T04:46:49.344Z,6.60
2019-01-13T04:47:49.330Z,7.00
2019-01-13T04:48:49.315Z,5.90
2019-01-13T04:49:49.309Z,7.00
2019-01-13T04:50:49.305Z,5.50
2019-01-13T04:51:49.291Z,6.00
2019-01-13T04:52:49.271Z,5.50
2019-01-13T04:53:49.261Z,4.70
2019-01-13T04:54:49.251Z,5.70
2019-01-13T04:55:49.254Z,6.10
2019-01-13T04:56:49.234Z,6.50
2019-01-13T04:57:49.221Z,6.70
2019-01-13T04:58:49.212Z,7.60
2019-01-13T04:59:49.208Z,6.60
2019-01-13T05:00:49.184Z,6.90
2019-01-13T05:01:49.184Z,5.50
2019-01-13T05:02:49.168Z,5.40
2019-01-13T05:03:49.157Z,8.30
2019-01-13T05:04:49.139Z,5.70
2019-01-13T05:05:49.132Z,7.00
2019-01-13T05:06:49.126Z,6.20
2019-01-13T05:07:49.126Z,7.20
2019-01-13T05:08:49.105Z,5.70
2019-01-13T05:09:49.090Z,6.70
2019-01-13T05:10:49.080Z,5.50
2019-01-13T05:11:49.077Z,8.20
2019-01-13T05:12:49.060Z,4.50
2019-01-13T05:13:49.058Z,4.10
2019-01-13T05:14:49.048Z,6.10
2019-01-13T05:15:49.035Z,6.70
2019-01-13T05:16:49.096Z,4.20
2019-01-13T05:17:49.013Z,5.40
2019-01-13T05:18:49.000Z,6.60
2019-01-13T05:19:49.009Z,6.10
2019-01-13T05:20:48.982Z,6.00
2019-01-13T05:21:48.963Z,5.30
2019-01-13T05:22:48.969Z,7.70
2019-01-13T05:23:48.943Z,6.00
2019-01-13T05:24:48.938Z,6.90
2019-01-13T05:25:48.922Z,5.40
2019-01-13T05:26:48.917Z,6.80
2019-01-13T05:27:48.900Z,4.50
2019-01-13T05:28:48.887Z,3.90
2019-01-13T05:29:48.885Z,5.10
2019-01-13T05:30:48.877Z,5.70
2019-01-13T05:31:48.865Z,4.00
2019-01-13T05:32:48.854Z,5.10
2019-01-13T05:33:48.838Z,5.50
2019-01-13T05:34:48.835Z,5.40
2019-01-13T05:35:48.836Z,5.50
2019-01-13T05:36:48.813Z,4.80
2019-01-13T05:37:48.804Z,5.10
2019-01-13T05:38:48.783Z,7.10
2019-01-13T05:39:48.772Z,5.40
2019-01-13T05:40:48.774Z,5.70
2019-01-13T05:41:48.773Z,5.50
2019-01-13T05:42:48.746Z,5.90
2019-01-13T05:43:48.745Z,5.00
2019-01-13T05:44:48.722Z,4.90
2019-01-13T05:45:48.720Z,4.60
2019-01-13T05:46:48.709Z,6.10
2019-01-13T05:47:48.710Z,4.80
2019-01-13T05:48:48.692Z,4.50
2019-01-13T05:49:48.670Z,5.40
2019-01-13T05:50:48.657Z,7.10
2019-01-13T05:51:48.654Z,5.00
2019-01-13T05:52:48.646Z,5.30
2019-01-13T05:53:48.631Z,5.20
2019-01-13T05:54:48.638Z,6.60
2019-01-13T05:55:48.607Z,5.40
2019-01-13T05:56:48.603Z,4.90
2019-01-13T05:57:48.592Z,4.60
2019-01-13T05:58:48.587Z,5.90
2019-01-13T05:59:48.572Z,4.90
2019-01-13T06:00:48.597Z,4.40
2019-01-13T06:01:49.374Z,5.30
2019-01-13T06:02:48.547Z,5.40
2019-01-13T06:03:48.529Z,4.60
2019-01-13T06:04:48.520Z,5.40
2019-01-13T06:05:48.527Z,5.80
2019-01-13T06:06:48.485Z,4.60
2019-01-13T06:07:48.481Z,4.90
2019-01-13T06:08:48.480Z,6.40
2019-01-13T06:09:48.458Z,6.10
2019-01-13T06:10:48.461Z,7.10
2019-01-13T06:11:48.454Z,6.30
2019-01-13T06:12:48.437Z,4.90
2019-01-13T06:13:48.422Z,5.80
2019-01-13T06:14:48.416Z,6.70
2019-01-13T06:15:48.405Z,6.90
2019-01-13T06:16:48.409Z,4.90
2019-01-13T06:17:48.378Z,5.40
2019-01-13T06:18:48.412Z,8.00
2019-01-13T06:19:48.355Z,6.00
2019-01-13T06:20:48.345Z,4.80
2019-01-13T06:21:48.336Z,7.50
2019-01-13T06:22:48.337Z,5.40
2019-01-13T06:23:48.328Z,6.30
2019-01-13T06:24:48.300Z,7.90
2019-01-13T06:25:48.295Z,6.70
2019-01-13T06:26:48.289Z,7.90
2019-01-13T06:27:48.279Z,8.00
2019-01-13T06:28:48.280Z,8.60
2019-01-13T06:29:48.250Z,8.00
2019-01-13T06:30:48.241Z,6.00
2019-01-13T06:31:48.229Z,5.40
2019-01-13T06:32:48.294Z,7.90
2019-01-13T06:33:48.228Z,7.00
2019-01-13T06:34:48.195Z,7.10
2019-01-13T06:35:48.183Z,6.20
2019-01-13T06:36:48.186Z,6.20
2019-01-13T06:37:48.187Z,6.60
2019-01-13T06:38:48.168Z,5.90
2019-01-13T06:39:48.161Z,7.20
2019-01-13T06:40:48.134Z,7.60
2019-01-13T06:41:48.135Z,6.70
2019-01-13T06:42:48.119Z,6.10
2019-01-13T06:43:48.099Z,9.80
2019-01-13T06:44:48.110Z,6.80
2019-01-13T06:45:48.110Z,6.30
2019-01-13T06:46:48.081Z,8.90
2019-01-13T06:47:48.072Z,7.70
2019-01-13T06:48:48.046Z,5.90
2019-01-13T06:49:48.048Z,7.20
2019-01-13T06:50:48.042Z,6.90
2019-01-13T06:51:48.025Z,9.30
2019-01-13T06:52:48.008Z,8.80
2019-01-13T06:53:48.000Z,7.90
2019-01-13T06:54:47.993Z,6.30
2019-01-13T06:55:47.980Z,7.10
2019-01-13T06:56:47.985Z,7.30
2019-01-13T06:57:47.961Z,6.50
2019-01-13T06:58:47.948Z,7.10
2019-01-13T06:59:47.942Z,7.80
2019-01-13T07:00:47.923Z,6.50
2019-01-13T07:01:47.919Z,7.30
2019-01-13T07:02:47.910Z,7.50
2019-01-13T07:03:47.889Z,7.00
2019-01-13T07:04:47.889Z,7.20
2019-01-13T07:05:47.888Z,7.70
2019-01-13T07:06:47.863Z,7.80
2019-01-13T07:07:47.861Z,6.90
2019-01-13T07:08:47.847Z,8.20
2019-01-13T07:09:47.831Z,6.30
2019-01-13T07:10:47.826Z,7.50
2019-01-13T07:11:47.807Z,7.30
2019-01-13T07:12:47.814Z,6.70
2019-01-13T07:13:47.796Z,7.20
2019-01-13T07:14:47.769Z,8.90
2019-01-13T07:15:47.760Z,6.60
2019-01-13T07:16:47.750Z,7.10
2019-01-13T07:17:47.747Z,6.50
2019-01-13T07:18:47.739Z,6.40
2019-01-13T07:19:47.735Z,6.90
2019-01-13T07:20:47.708Z,5.60
2019-01-13T07:21:47.703Z,5.20
2019-01-13T07:22:47.691Z,4.80
2019-01-13T07:23:47.687Z,7.60
2019-01-13T07:24:47.680Z,10.40
2019-01-13T07:25:47.648Z,6.60
2019-01-13T07:26:47.651Z,5.20
2019-01-13T07:27:47.666Z,7.60
2019-01-13T07:28:47.624Z,7.20
2019-01-13T07:29:47.626Z,5.70
2019-01-13T07:30:47.610Z,7.50
2019-01-13T07:31:47.605Z,4.90
2019-01-13T07:32:47.584Z,7.20
2019-01-13T07:33:47.577Z,5.60
2019-01-13T07:34:47.573Z,5.70
2019-01-13T07:35:47.551Z,7.40
2019-01-13T07:36:47.549Z,6.00
2019-01-13T07:37:47.549Z,7.20
2019-01-13T07:38:47.520Z,6.30
2019-01-13T07:39:47.505Z,7.70
2019-01-13T07:40:47.539Z,5.90
2019-01-13T07:41:47.515Z,7.70
2019-01-13T07:42:47.485Z,8.10
2019-01-13T07:43:47.475Z,5.50
2019-01-13T07:44:47.458Z,6.00
2019-01-13T07:45:47.453Z,6.10
2019-01-13T07:46:47.452Z,7.50
2019-01-13T07:47:47.436Z,4.60
2019-01-13T07:48:47.428Z,7.50
2019-01-13T07:49:47.443Z,4.20
2019-01-13T07:50:47.392Z,6.70
2019-01-13T07:51:47.387Z,6.30
2019-01-13T07:52:47.377Z,5.50
2019-01-13T07:53:47.377Z,7.00
2019-01-13T07:54:47.368Z,5.70
2019-01-13T07:55:47.345Z,7.80
2019-01-13T07:56:47.332Z,6.00
2019-01-13T07:57:47.331Z,4.10
2019-01-13T07:58:47.309Z,5.80
2019-01-13T07:59:47.341Z,6.50
2019-01-13T08:00:47.320Z,7.20
2019-01-13T08:01:47.279Z,7.00
2019-01-13T08:02:47.285Z,5.50
2019-01-13T08:03:47.269Z,5.40
2019-01-13T08:04:47.259Z,6.80
2019-01-13T08:05:47.249Z,5.40
2019-01-13T08:06:47.217Z,5.80
2019-01-13T08:07:47.238Z,7.00
2019-01-13T08:08:47.212Z,4.10
2019-01-13T08:09:47.190Z,7.80
2019-01-13T08:10:47.211Z,5.60
2019-01-13T08:11:47.180Z,5.90
2019-01-13T08:12:47.159Z,6.70
2019-01-13T08:13:47.155Z,7.40
2019-01-13T08:14:47.158Z,5.10
2019-01-13T08:15:47.126Z,7.50
2019-01-13T08:16:47.145Z,7.90
2019-01-13T08:17:47.122Z,6.00
2019-01-13T08:18:47.112Z,6.80
2019-01-13T08:19:47.109Z,5.80
2019-01-13T08:20:47.100Z,8.50
2019-01-13T08:21:47.071Z,6.30
2019-01-13T08:22:47.062Z,7.80
2019-01-13T08:23:47.072Z,4.50
2019-01-13T08:24:47.047Z,5.00
2019-01-13T08:25:47.022Z,7.70
2019-01-13T08:26:47.017Z,5.90
2019-01-13T08:27:47.008Z,7.10
2019-01-13T08:28:47.022Z,7.00
2019-01-13T08:29:46.983Z,7.20
2019-01-13T08:30:46.979Z,5.70
2019-01-13T08:31:46.965Z,6.50
2019-01-13T08:32:46.948Z,6.80
2019-01-13T08:33:46.949Z,6.30
2019-01-13T08:34:46.941Z,6.60
2019-01-13T08:35:46.926Z,5.80
2019-01-13T08:36:46.919Z,6.20
2019-01-13T08:37:46.911Z,6.20
2019-01-13T08:38:46.887Z,5.60
2019-01-13T08:39:46.891Z,5.50
2019-01-13T08:40:46.877Z,6.60
2019-01-13T08:41:46.864Z,6.10
2019-01-13T08:42:46.845Z,8.80
2019-01-13T08:43:46.834Z,7.40
2019-01-13T08:44:46.832Z,7.40
2019-01-13T08:45:50.411Z,7.70
2019-01-13T08:46:46.806Z,9.50
2019-01-13T08:47:46.806Z,5.60
2019-01-13T08:48:46.773Z,7.50
2019-01-13T08:49:46.767Z,6.40
2019-01-13T08:50:46.758Z,7.10
2019-01-13T08:51:46.774Z,8.00
2019-01-13T08:52:46.750Z,7.00
2019-01-13T08:53:46.726Z,7.90
2019-01-13T08:54:46.722Z,6.20
2019-01-13T08:55:46.701Z,6.30
2019-01-13T08:56:46.709Z,7.40
2019-01-13T08:57:46.718Z,6.40
2019-01-13T08:58:46.672Z,8.50
2019-01-13T08:59:46.661Z,7.50
2019-01-13T09:00:46.661Z,7.30
2019-01-13T09:01:46.646Z,6.60
2019-01-13T09:02:46.631Z,7.60
2019-01-13T09:03:46.613Z,7.20
2019-01-13T09:04:46.605Z,6.00
2019-01-13T09:05:46.602Z,7.40
2019-01-13T09:06:46.590Z,8.30
2019-01-13T09:07:46.572Z,7.80
2019-01-13T09:08:46.578Z,8.80
2019-01-13T09:09:46.561Z,11.70
2019-01-13T09:10:46.549Z,10.30
2019-01-13T09:11:46.532Z,9.50
2019-01-13T09:12:46.521Z,10.00
2019-01-13T09:13:46.516Z,9.10
2019-01-13T09:14:46.496Z,9.50
2019-01-13T09:15:46.504Z,11.20
2019-01-13T09:16:46.478Z,9.80
2019-01-13T09:17:46.482Z,8.50
2019-01-13T09:18:46.455Z,10.60
2019-01-13T09:19:46.454Z,9.70
2019-01-13T09:20:46.435Z,8.60
2019-01-13T09:21:46.433Z,11.30
2019-01-13T09:22:46.414Z,13.00
2019-01-13T09:23:46.418Z,8.50
2019-01-13T09:24:46.390Z,9.10
2019-01-13T09:25:46.391Z,9.70
2019-01-13T09:26:50.952Z,11.20
2019-01-13T09:27:46.369Z,10.30
2019-01-13T09:28:46.353Z,13.30
2019-01-13T09:29:46.341Z,10.30
2019-01-13T09:30:46.344Z,10.80
2019-01-13T09:31:46.333Z,8.90
2019-01-13T09:32:46.318Z,8.70
2019-01-13T09:33:46.300Z,9.80
2019-01-13T09:34:46.289Z,11.30
2019-01-13T09:35:46.288Z,11.80
2019-01-13T09:36:46.269Z,8.40
2019-01-13T09:37:46.329Z,12.00
2019-01-13T09:38:46.247Z,9.10
2019-01-13T09:39:46.239Z,9.60
2019-01-13T09:40:46.231Z,9.50
2019-01-13T09:41:46.220Z,8.40
2019-01-13T09:42:46.206Z,9.50
2019-01-13T09:43:46.195Z,7.00
2019-01-13T09:44:46.185Z,8.00
2019-01-13T09:45:46.164Z,8.90
2019-01-13T09:46:46.176Z,8.50
2019-01-13T09:47:46.216Z,7.40
2019-01-13T09:48:46.154Z,7.10
2019-01-13T09:49:49.864Z,9.20
2019-01-13T09:50:46.178Z,7.40
2019-01-13T09:51:46.116Z,6.50
2019-01-13T09:52:46.126Z,7.70
2019-01-13T09:53:46.117Z,7.80
2019-01-13T09:54:46.143Z,6.70
2019-01-13T09:55:46.123Z,6.40
2019-01-13T09:56:46.129Z,6.70
2019-01-13T09:57:46.084Z,6.30
2019-01-13T09:58:46.037Z,6.30
2019-01-13T09:59:46.078Z,8.40
2019-01-13T10:00:46.014Z,7.00
2019-01-13T10:01:46.007Z,7.70
2019-01-13T10:02:46.839Z,6.60
2019-01-13T10:03:45.984Z,6.00
2019-01-13T10:04:45.975Z,6.60
2019-01-13T10:05:45.973Z,7.30
2019-01-13T10:06:45.952Z,8.30
2019-01-13T10:07:45.938Z,6.60
2019-01-13T10:08:45.932Z,4.90
2019-01-13T10:09:45.917Z,6.10
2019-01-13T10:10:45.913Z,5.70
2019-01-13T10:11:45.926Z,7.10
2019-01-13T10:12:45.893Z,6.80
2019-01-13T10:13:45.875Z,5.80
2019-01-13T10:14:45.863Z,7.90
2019-01-13T10:15:45.855Z,7.40
2019-01-13T10:16:45.856Z,6.80
2019-01-13T10:17:45.834Z,5.80
2019-01-13T10:18:45.825Z,5.80
2019-01-13T10:19:45.811Z,6.80
2019-01-13T10:20:45.808Z,5.70
2019-01-13T10:21:45.787Z,6.70
2019-01-13T10:22:45.818Z,4.80
2019-01-13T10:23:45.775Z,5.00
2019-01-13T10:24:45.759Z,7.00
2019-01-13T10:25:45.747Z,6.70
2019-01-13T10:26:45.734Z,5.60
2019-01-13T10:27:45.733Z,5.30
2019-01-13T10:28:45.723Z,6.40
2019-01-13T10:29:45.703Z,5.80
2019-01-13T10:30:45.692Z,5.70
2019-01-13T10:31:45.689Z,6.00
2019-01-13T10:32:46.789Z,6.70
2019-01-13T10:33:45.670Z,5.20
2019-01-13T10:34:45.758Z,5.50
2019-01-13T10:35:45.643Z,4.70
2019-01-13T10:36:45.633Z,6.60
2019-01-13T10:37:45.619Z,4.80
2019-01-13T10:38:45.613Z,5.00
2019-01-13T10:39:45.606Z,5.20
2019-01-13T10:40:45.587Z,4.70
2019-01-13T10:41:45.578Z,6.40
2019-01-13T10:42:45.562Z,6.30
2019-01-13T10:43:45.567Z,5.10
2019-01-13T10:44:45.604Z,5.00
2019-01-13T10:45:45.541Z,5.50
2019-01-13T10:46:45.525Z,5.50
2019-01-13T10:47:45.515Z,5.60
2019-01-13T10:48:45.501Z,4.40
2019-01-13T10:49:45.524Z,6.90
2019-01-13T10:50:45.475Z,4.90
2019-01-13T10:51:45.472Z,5.30
2019-01-13T10:52:45.460Z,4.40
2019-01-13T10:53:45.488Z,5.50
2019-01-13T10:54:45.433Z,4.90
2019-01-13T10:55:45.422Z,4.60
2019-01-13T10:56:45.425Z,4.20
2019-01-13T10:57:45.405Z,5.00
2019-01-13T10:58:45.395Z,4.70
2019-01-13T10:59:45.390Z,4.90
2019-01-13T11:00:45.373Z,4.80
2019-01-13T11:01:45.365Z,4.10
2019-01-13T11:02:45.358Z,4.90
2019-01-13T11:03:45.335Z,4.90
2019-01-13T11:04:45.322Z,5.20
2019-01-13T11:05:45.317Z,3.50
2019-01-13T11:06:45.311Z,4.00
2019-01-13T11:07:45.296Z,5.00
2019-01-13T11:08:45.282Z,4.60
2019-01-13T11:09:45.271Z,4.60
2019-01-13T11:10:45.261Z,4.50
2019-01-13T11:11:45.258Z,5.30
2019-01-13T11:12:45.247Z,3.80
2019-01-13T11:13:45.237Z,4.40
2019-01-13T11:14:45.225Z,4.60
2019-01-13T11:15:45.223Z,4.90
2019-01-13T11:16:45.207Z,3.10
2019-01-13T11:17:45.207Z,5.90
2019-01-13T11:18:45.185Z,4.70
2019-01-13T11:19:45.175Z,3.90
2019-01-13T11:20:45.158Z,3.70
2019-01-13T11:21:45.150Z,3.90
2019-01-13T11:22:45.146Z,3.90
2019-01-13T11:23:45.129Z,2.80
2019-01-13T11:24:45.125Z,5.70
2019-01-13T11:25:45.115Z,3.60
2019-01-13T11:26:45.137Z,4.50
2019-01-13T11:27:45.090Z,3.80
2019-01-13T11:28:45.071Z,3.50
2019-01-13T11:29:45.071Z,4.10
2019-01-13T11:30:45.079Z,3.20
2019-01-13T11:31:45.046Z,3.50
2019-01-13T11:32:45.034Z,3.30
2019-01-13T11:33:45.021Z,3.60
2019-01-13T11:34:45.011Z,2.70
2019-01-13T11:35:45.038Z,3.30
2019-01-13T11:36:45.013Z,3.40
2019-01-13T11:37:44.981Z,2.40
2019-01-13T11:38:44.970Z,3.20
2019-01-13T11:39:44.959Z,2.60
2019-01-13T11:40:44.947Z,3.50
2019-01-13T11:41:44.946Z,2.40
2019-01-13T11:42:44.943Z,1.70
2019-01-13T11:43:44.912Z,2.80
2019-01-13T11:44:44.901Z,2.40
2019-01-13T11:45:44.895Z,2.50
2019-01-13T11:46:44.889Z,2.50
2019-01-13T11:47:44.881Z,2.90
2019-01-13T11:48:44.871Z,2.40
2019-01-13T11:49:44.853Z,1.70
2019-01-13T11:50:44.843Z,2.90
2019-01-13T11:51:44.833Z,1.80
2019-01-13T11:52:44.842Z,2.20
2019-01-13T11:53:44.809Z,3.20
2019-01-13T11:54:44.796Z,1.40
2019-01-13T11:55:44.796Z,2.10
2019-01-13T11:56:44.777Z,2.90
2019-01-13T11:57:44.773Z,1.60
2019-01-13T11:58:44.755Z,1.80
2019-01-13T11:59:44.751Z,1.40
2019-01-13T12:00:44.732Z,2.40
2019-01-13T12:01:44.722Z,1.60
2019-01-13T12:02:44.719Z,2.30
2019-01-13T12:03:44.703Z,1.30
2019-01-13T12:04:44.690Z,4.90
2019-01-13T12:05:44.690Z,1.60
2019-01-13T12:06:44.671Z,1.90
2019-01-13T12:07:44.659Z,1.70
2019-01-13T12:08:44.665Z,1.90
2019-01-13T12:09:44.653Z,1.30
2019-01-13T12:10:44.630Z,1.50
2019-01-13T12:11:44.619Z,1.20
2019-01-13T12:12:44.645Z,1.30
2019-01-13T12:13:44.605Z,1.70
2019-01-13T12:14:44.719Z,1.20
2019-01-13T12:15:44.637Z,1.20
2019-01-13T12:16:44.574Z,1.50
2019-01-13T12:17:44.564Z,1.40
2019-01-13T12:18:44.550Z,1.50
2019-01-13T12:19:44.539Z,1.40
2019-01-13T12:20:44.521Z,1.10
2019-01-13T12:21:44.514Z,1.80
2019-01-13T12:22:44.503Z,2.00
2019-01-13T12:23:44.499Z,0.80
2019-01-13T12:24:44.482Z,0.70
2019-01-13T12:25:44.472Z,1.30
2019-01-13T12:26:44.456Z,1.90
2019-01-13T12:27:44.454Z,1.30
2019-01-13T12:28:44.442Z,1.80
2019-01-13T12:29:44.427Z,1.30
2019-01-13T12:30:44.421Z,1.30
2019-01-13T12:31:44.419Z,1.30
2019-01-13T12:32:44.401Z,1.30
2019-01-13T12:33:44.388Z,1.20
2019-01-13T12:34:44.378Z,1.50
2019-01-13T12:35:44.369Z,1.50
2019-01-13T12:36:44.359Z,1.60
2019-01-13T12:37:44.348Z,1.40
2019-01-13T12:38:44.336Z,1.20
2019-01-13T12:39:44.328Z,1.40
2019-01-13T12:40:44.316Z,1.30
2019-01-13T12:41:44.304Z,1.40
2019-01-13T12:42:44.303Z,1.60
2019-01-13T12:43:44.292Z,1.60
2019-01-13T12:44:44.280Z,1.90
2019-01-13T12:45:44.269Z,1.90
2019-01-13T12:46:44.275Z,1.40
2019-01-13T12:47:44.256Z,1.60
2019-01-13T12:48:44.236Z,1.70
2019-01-13T12:49:44.215Z,1.60
2019-01-13T12:50:44.208Z,1.60
2019-01-13T12:51:44.213Z,1.40
2019-01-13T12:52:44.185Z,1.70
2019-01-13T12:53:44.205Z,2.30
2019-01-13T12:54:44.163Z,1.40
2019-01-13T12:55:44.162Z,1.50
2019-01-13T12:56:44.145Z,1.40
2019-01-13T12:57:44.908Z,1.50
2019-01-13T12:58:44.131Z,1.20
2019-01-13T12:59:44.118Z,6.60
2019-01-13T13:00:44.108Z,4.60
2019-01-13T13:01:44.103Z,2.60
2019-01-13T13:02:44.093Z,2.60
2019-01-13T13:03:44.063Z,1.40
2019-01-13T13:04:44.057Z,1.90
2019-01-13T13:05:44.047Z,3.40
2019-01-13T13:06:44.033Z,1.60
2019-01-13T13:07:44.035Z,1.50
2019-01-13T13:08:44.027Z,1.80
2019-01-13T13:09:44.011Z,1.80
2019-01-13T13:10:43.996Z,1.90
2019-01-13T13:11:43.980Z,2.00
2019-01-13T13:12:43.974Z,1.90
2019-01-13T13:13:43.973Z,1.60
2019-01-13T13:14:43.955Z,1.80
2019-01-13T13:15:43.943Z,1.90
2019-01-13T13:16:43.937Z,2.00
2019-01-13T13:17:43.919Z,1.80